GRZ506 Details

Departure: Juneau International Airport (PAJN)
Arrival: Fairbanks International Airport (PAFA) at N/A
Route: JNU5 SSR J502 RDFLG HRDNG2
Notes:


Current Weather Information
PAJN 250453Z 07004KT 10SM FEW005 BKN075 OVC095 12/11 A2987 RMK AO2 SLP116 T01220111
PAFA 250453Z 26003KT 10SM FEW050 FEW180 13/04 A2977 RMK AO2 SLP087 T01280044